sensor_id;sensor_type;location;lat;lon;timestamp;P1;durP1;ratioP1;P2;durP2;ratioP2
30173;SDS011;16985;50.814;8.530;2023-02-01T00:00:23;28.55;;;10.15;;
30173;SDS011;16985;50.814;8.530;2023-02-01T00:02:55;29.55;;;11.63;;
30173;SDS011;16985;50.814;8.530;2023-02-01T00:05:22;34.70;;;10.93;;
30173;SDS011;16985;50.814;8.530;2023-02-01T00:07:48;33.00;;;10.63;;
30173;SDS011;16985;50.814;8.530;2023-02-01T00:10:22;24.85;;;10.52;;
30173;SDS011;16985;50.814;8.530;2023-02-01T00:12:48;19.35;;;8.32;;
30173;SDS011;16985;50.814;8.530;2023-02-01T00:15:14;21.88;;;8.98;;
30173;SDS011;16985;50.814;8.530;2023-02-01T00:17:40;25.58;;;9.95;;
30173;SDS011;16985;50.814;8.530;2023-02-01T00:20:06;28.80;;;12.05;;
30173;SDS011;16985;50.814;8.530;2023-02-01T00:22:35;22.15;;;9.70;;
30173;SDS011;16985;50.814;8.530;2023-02-01T00:25:00;23.50;;;11.63;;
30173;SDS011;16985;50.814;8.530;2023-02-01T00:27:26;37.13;;;14.38;;
30173;SDS011;16985;50.814;8.530;2023-02-01T00:29:54;25.73;;;11.43;;
30173;SDS011;16985;50.814;8.530;2023-02-01T00:32:20;31.15;;;11.95;;
30173;SDS011;16985;50.814;8.530;2023-02-01T00:34:46;33.28;;;12.20;;
30173;SDS011;16985;50.814;8.530;2023-02-01T00:37:12;25.88;;;11.43;;
30173;SDS011;16985;50.814;8.530;2023-02-01T00:39:38;33.05;;;11.00;;
30173;SDS011;16985;50.814;8.530;2023-02-01T00:42:03;20.00;;;10.85;;
30173;SDS011;16985;50.814;8.530;2023-02-01T00:44:29;25.85;;;11.50;;
30173;SDS011;16985;50.814;8.530;2023-02-01T00:46:58;30.95;;;11.52;;
30173;SDS011;16985;50.814;8.530;2023-02-01T00:49:25;29.20;;;12.15;;
30173;SDS011;16985;50.814;8.530;2023-02-01T00:51:52;31.80;;;12.50;;
30173;SDS011;16985;50.814;8.530;2023-02-01T00:54:17;23.90;;;11.95;;
30173;SDS011;16985;50.814;8.530;2023-02-01T00:56:43;20.63;;;11.68;;
30173;SDS011;16985;50.814;8.530;2023-02-01T00:59:12;30.30;;;13.20;;
30173;SDS011;16985;50.814;8.530;2023-02-01T01:01:38;34.33;;;13.30;;
30173;SDS011;16985;50.814;8.530;2023-02-01T01:04:04;39.63;;;14.15;;
30173;SDS011;16985;50.814;8.530;2023-02-01T01:06:31;32.80;;;12.38;;
30173;SDS011;16985;50.814;8.530;2023-02-01T01:08:59;23.58;;;12.30;;
30173;SDS011;16985;50.814;8.530;2023-02-01T01:11:28;29.45;;;12.40;;
30173;SDS011;16985;50.814;8.530;2023-02-01T01:13:57;31.77;;;12.75;;
30173;SDS011;16985;50.814;8.530;2023-02-01T01:16:25;29.50;;;13.18;;
30173;SDS011;16985;50.814;8.530;2023-02-01T01:18:54;28.55;;;12.45;;
30173;SDS011;16985;50.814;8.530;2023-02-01T01:21:20;25.38;;;12.13;;
30173;SDS011;16985;50.814;8.530;2023-02-01T01:23:46;21.95;;;12.02;;
30173;SDS011;16985;50.814;8.530;2023-02-01T01:26:14;31.88;;;11.75;;
30173;SDS011;16985;50.814;8.530;2023-02-01T01:28:44;29.02;;;12.88;;
30173;SDS011;16985;50.814;8.530;2023-02-01T01:31:11;37.40;;;13.88;;
30173;SDS011;16985;50.814;8.530;2023-02-01T01:33:39;29.88;;;13.93;;
30173;SDS011;16985;50.814;8.530;2023-02-01T01:36:06;29.13;;;13.43;;
30173;SDS011;16985;50.814;8.530;2023-02-01T01:38:36;28.70;;;12.70;;
30173;SDS011;16985;50.814;8.530;2023-02-01T01:41:04;37.03;;;12.17;;
30173;SDS011;16985;50.814;8.530;2023-02-01T01:46:18;29.27;;;11.98;;
30173;SDS011;16985;50.814;8.530;2023-02-01T01:48:49;35.63;;;12.73;;
30173;SDS011;16985;50.814;8.530;2023-02-01T01:51:22;33.55;;;12.60;;
30173;SDS011;16985;50.814;8.530;2023-02-01T01:53:53;27.15;;;12.73;;
30173;SDS011;16985;50.814;8.530;2023-02-01T01:56:28;26.80;;;12.02;;
30173;SDS011;16985;50.814;8.530;2023-02-01T01:58:57;23.88;;;12.45;;
30173;SDS011;16985;50.814;8.530;2023-02-01T02:01:23;28.55;;;13.43;;
30173;SDS011;16985;50.814;8.530;2023-02-01T02:03:50;27.45;;;11.48;;
30173;SDS011;16985;50.814;8.530;2023-02-01T02:06:22;30.17;;;12.27;;
30173;SDS011;16985;50.814;8.530;2023-02-01T02:08:59;37.05;;;12.65;;
30173;SDS011;16985;50.814;8.530;2023-02-01T02:11:26;27.52;;;11.52;;
30173;SDS011;16985;50.814;8.530;2023-02-01T02:13:52;23.10;;;10.73;;
30173;SDS011;16985;50.814;8.530;2023-02-01T02:16:33;19.95;;;10.82;;
30173;SDS011;16985;50.814;8.530;2023-02-01T02:34:10;26.73;;;10.68;;
30173;SDS011;16985;50.814;8.530;2023-02-01T02:37:04;22.80;;;8.88;;
30173;SDS011;16985;50.814;8.530;2023-02-01T02:39:59;27.77;;;8.93;;
30173;SDS011;16985;50.814;8.530;2023-02-01T02:42:40;31.33;;;11.15;;
30173;SDS011;16985;50.814;8.530;2023-02-01T02:49:09;27.23;;;9.45;;
30173;SDS011;16985;50.814;8.530;2023-02-01T02:51:45;39.33;;;9.88;;
30173;SDS011;16985;50.814;8.530;2023-02-01T02:54:40;26.30;;;8.65;;
30173;SDS011;16985;50.814;8.530;2023-02-01T02:57:20;28.70;;;9.85;;
30173;SDS011;16985;50.814;8.530;2023-02-01T03:00:17;32.15;;;9.98;;
30173;SDS011;16985;50.814;8.530;2023-02-01T03:03:04;22.27;;;8.13;;
30173;SDS011;16985;50.814;8.530;2023-02-01T03:05:50;25.13;;;8.90;;
30173;SDS011;16985;50.814;8.530;2023-02-01T03:08:22;26.65;;;9.40;;
30173;SDS011;16985;50.814;8.530;2023-02-01T03:11:06;31.88;;;8.05;;
30173;SDS011;16985;50.814;8.530;2023-02-01T03:16:19;28.27;;;8.00;;
30173;SDS011;16985;50.814;8.530;2023-02-01T03:21:26;31.33;;;10.95;;
30173;SDS011;16985;50.814;8.530;2023-02-01T03:24:00;31.85;;;9.88;;
30173;SDS011;16985;50.814;8.530;2023-02-01T03:26:34;28.58;;;9.85;;
30173;SDS011;16985;50.814;8.530;2023-02-01T03:29:08;26.85;;;8.60;;
30173;SDS011;16985;50.814;8.530;2023-02-01T03:31:41;20.95;;;7.38;;
30173;SDS011;16985;50.814;8.530;2023-02-01T03:34:08;30.17;;;9.18;;
30173;SDS011;16985;50.814;8.530;2023-02-01T03:36:45;27.17;;;7.93;;
30173;SDS011;16985;50.814;8.530;2023-02-01T03:39:39;29.02;;;8.00;;
30173;SDS011;16985;50.814;8.530;2023-02-01T03:42:19;26.55;;;7.40;;
30173;SDS011;16985;50.814;8.530;2023-02-01T03:45:00;21.55;;;6.45;;
30173;SDS011;16985;50.814;8.530;2023-02-01T03:47:42;25.35;;;9.02;;
30173;SDS011;16985;50.814;8.530;2023-02-01T03:50:14;26.65;;;7.28;;
30173;SDS011;16985;50.814;8.530;2023-02-01T03:52:44;23.38;;;8.30;;
30173;SDS011;16985;50.814;8.530;2023-02-01T03:55:16;32.42;;;7.55;;
30173;SDS011;16985;50.814;8.530;2023-02-01T03:57:49;30.48;;;7.38;;
30173;SDS011;16985;50.814;8.530;2023-02-01T04:00:28;20.98;;;7.43;;
30173;SDS011;16985;50.814;8.530;2023-02-01T04:02:56;24.40;;;7.95;;
30173;SDS011;16985;50.814;8.530;2023-02-01T04:05:22;32.55;;;8.60;;
30173;SDS011;16985;50.814;8.530;2023-02-01T04:07:58;23.63;;;6.95;;
30173;SDS011;16985;50.814;8.530;2023-02-01T04:10:25;26.02;;;7.32;;
30173;SDS011;16985;50.814;8.530;2023-02-01T04:12:51;33.50;;;7.10;;
30173;SDS011;16985;50.814;8.530;2023-02-01T04:15:17;16.15;;;6.28;;
30173;SDS011;16985;50.814;8.530;2023-02-01T04:17:43;24.60;;;7.03;;
30173;SDS011;16985;50.814;8.530;2023-02-01T04:20:09;20.40;;;7.28;;
30173;SDS011;16985;50.814;8.530;2023-02-01T04:22:35;30.77;;;6.90;;
30173;SDS011;16985;50.814;8.530;2023-02-01T04:25:01;30.17;;;6.97;;
30173;SDS011;16985;50.814;8.530;2023-02-01T04:27:27;24.38;;;6.63;;
30173;SDS011;16985;50.814;8.530;2023-02-01T04:29:53;20.55;;;5.75;;
30173;SDS011;16985;50.814;8.530;2023-02-01T04:32:19;26.67;;;7.25;;
30173;SDS011;16985;50.814;8.530;2023-02-01T04:34:45;32.05;;;7.22;;
30173;SDS011;16985;50.814;8.530;2023-02-01T04:37:11;20.15;;;6.05;;
30173;SDS011;16985;50.814;8.530;2023-02-01T04:39:36;25.65;;;6.13;;
30173;SDS011;16985;50.814;8.530;2023-02-01T04:42:02;22.60;;;6.00;;
30173;SDS011;16985;50.814;8.530;2023-02-01T04:44:28;25.27;;;6.25;;
30173;SDS011;16985;50.814;8.530;2023-02-01T04:46:55;26.65;;;6.95;;
30173;SDS011;16985;50.814;8.530;2023-02-01T04:49:20;20.52;;;6.35;;
30173;SDS011;16985;50.814;8.530;2023-02-01T04:51:47;23.00;;;7.82;;
30173;SDS011;16985;50.814;8.530;2023-02-01T04:54:13;28.95;;;6.88;;
30173;SDS011;16985;50.814;8.530;2023-02-01T04:56:39;29.20;;;8.25;;
30173;SDS011;16985;50.814;8.530;2023-02-01T04:59:05;29.20;;;7.07;;
30173;SDS011;16985;50.814;8.530;2023-02-01T05:01:31;21.92;;;6.45;;
30173;SDS011;16985;50.814;8.530;2023-02-01T05:03:58;21.55;;;7.97;;
30173;SDS011;16985;50.814;8.530;2023-02-01T05:06:23;34.95;;;7.85;;
30173;SDS011;16985;50.814;8.530;2023-02-01T05:08:49;26.83;;;8.52;;
30173;SDS011;16985;50.814;8.530;2023-02-01T05:11:15;27.63;;;7.03;;
30173;SDS011;16985;50.814;8.530;2023-02-01T05:13:59;30.52;;;6.93;;
30173;SDS011;16985;50.814;8.530;2023-02-01T05:16:26;23.42;;;7.43;;
30173;SDS011;16985;50.814;8.530;2023-02-01T05:18:52;28.35;;;7.45;;
30173;SDS011;16985;50.814;8.530;2023-02-01T05:21:18;17.48;;;6.85;;
30173;SDS011;16985;50.814;8.530;2023-02-01T05:23:44;28.08;;;8.15;;
30173;SDS011;16985;50.814;8.530;2023-02-01T05:26:28;29.15;;;8.43;;
30173;SDS011;16985;50.814;8.530;2023-02-01T05:28:54;22.42;;;7.85;;
30173;SDS011;16985;50.814;8.530;2023-02-01T05:31:20;29.25;;;7.47;;
30173;SDS011;16985;50.814;8.530;2023-02-01T05:33:46;26.95;;;8.45;;
30173;SDS011;16985;50.814;8.530;2023-02-01T05:36:12;17.20;;;6.68;;
30173;SDS011;16985;50.814;8.530;2023-02-01T05:38:38;21.27;;;8.25;;
30173;SDS011;16985;50.814;8.530;2023-02-01T05:41:04;28.15;;;7.78;;
30173;SDS011;16985;50.814;8.530;2023-02-01T05:43:30;29.52;;;9.13;;
30173;SDS011;16985;50.814;8.530;2023-02-01T05:45:55;20.98;;;7.00;;
30173;SDS011;16985;50.814;8.530;2023-02-01T05:48:21;21.38;;;7.78;;
30173;SDS011;16985;50.814;8.530;2023-02-01T05:50:50;30.52;;;7.63;;
30173;SDS011;16985;50.814;8.530;2023-02-01T05:53:16;21.90;;;6.47;;
30173;SDS011;16985;50.814;8.530;2023-02-01T05:55:42;21.52;;;7.07;;
30173;SDS011;16985;50.814;8.530;2023-02-01T05:58:07;22.10;;;6.20;;
30173;SDS011;16985;50.814;8.530;2023-02-01T06:00:33;23.90;;;7.03;;
30173;SDS011;16985;50.814;8.530;2023-02-01T06:03:00;26.95;;;7.18;;
30173;SDS011;16985;50.814;8.530;2023-02-01T06:05:26;25.25;;;7.22;;
30173;SDS011;16985;50.814;8.530;2023-02-01T06:07:52;23.70;;;7.32;;
30173;SDS011;16985;50.814;8.530;2023-02-01T06:10:18;23.40;;;8.32;;
30173;SDS011;16985;50.814;8.530;2023-02-01T06:12:44;19.77;;;6.70;;
30173;SDS011;16985;50.814;8.530;2023-02-01T06:15:11;24.08;;;6.57;;
30173;SDS011;16985;50.814;8.530;2023-02-01T06:17:38;25.55;;;7.22;;
30173;SDS011;16985;50.814;8.530;2023-02-01T06:20:06;27.13;;;7.43;;
30173;SDS011;16985;50.814;8.530;2023-02-01T06:22:33;23.88;;;7.13;;
30173;SDS011;16985;50.814;8.530;2023-02-01T06:25:02;19.83;;;7.35;;
30173;SDS011;16985;50.814;8.530;2023-02-01T06:27:29;23.08;;;6.90;;
30173;SDS011;16985;50.814;8.530;2023-02-01T06:29:55;16.98;;;6.85;;
30173;SDS011;16985;50.814;8.530;2023-02-01T06:32:21;23.55;;;7.40;;
30173;SDS011;16985;50.814;8.530;2023-02-01T06:34:48;19.63;;;7.18;;
30173;SDS011;16985;50.814;8.530;2023-02-01T06:37:13;33.63;;;9.15;;
30173;SDS011;16985;50.814;8.530;2023-02-01T06:39:39;19.63;;;7.95;;
30173;SDS011;16985;50.814;8.530;2023-02-01T06:42:05;28.13;;;8.38;;
30173;SDS011;16985;50.814;8.530;2023-02-01T06:44:31;23.25;;;8.05;;
30173;SDS011;16985;50.814;8.530;2023-02-01T06:46:57;24.38;;;7.85;;
30173;SDS011;16985;50.814;8.530;2023-02-01T06:49:23;25.50;;;7.25;;
30173;SDS011;16985;50.814;8.530;2023-02-01T06:51:48;28.98;;;8.05;;
30173;SDS011;16985;50.814;8.530;2023-02-01T06:54:14;17.83;;;6.45;;
30173;SDS011;16985;50.814;8.530;2023-02-01T06:56:40;20.63;;;6.97;;
30173;SDS011;16985;50.814;8.530;2023-02-01T06:59:06;22.20;;;7.53;;
30173;SDS011;16985;50.814;8.530;2023-02-01T07:01:33;23.08;;;7.88;;
30173;SDS011;16985;50.814;8.530;2023-02-01T07:03:59;19.02;;;6.60;;
30173;SDS011;16985;50.814;8.530;2023-02-01T07:06:26;16.58;;;6.72;;
30173;SDS011;16985;50.814;8.530;2023-02-01T07:08:52;27.52;;;6.85;;
30173;SDS011;16985;50.814;8.530;2023-02-01T07:11:20;21.48;;;6.80;;
30173;SDS011;16985;50.814;8.530;2023-02-01T07:13:47;20.60;;;7.68;;
30173;SDS011;16985;50.814;8.530;2023-02-01T07:16:14;31.80;;;6.78;;
30173;SDS011;16985;50.814;8.530;2023-02-01T07:18:43;17.30;;;6.38;;
30173;SDS011;16985;50.814;8.530;2023-02-01T07:21:10;33.60;;;8.38;;
30173;SDS011;16985;50.814;8.530;2023-02-01T07:23:37;31.75;;;7.97;;
30173;SDS011;16985;50.814;8.530;2023-02-01T07:26:04;18.80;;;6.70;;
30173;SDS011;16985;50.814;8.530;2023-02-01T07:28:33;24.73;;;8.10;;
30173;SDS011;16985;50.814;8.530;2023-02-01T07:31:04;20.75;;;7.75;;
30173;SDS011;16985;50.814;8.530;2023-02-01T07:33:32;17.63;;;6.45;;
30173;SDS011;16985;50.814;8.530;2023-02-01T07:35:59;22.20;;;7.05;;
30173;SDS011;16985;50.814;8.530;2023-02-01T07:38:28;24.58;;;7.57;;
30173;SDS011;16985;50.814;8.530;2023-02-01T07:41:01;18.77;;;6.88;;
30173;SDS011;16985;50.814;8.530;2023-02-01T07:43:29;19.00;;;6.15;;
30173;SDS011;16985;50.814;8.530;2023-02-01T07:45:56;36.58;;;7.65;;
30173;SDS011;16985;50.814;8.530;2023-02-01T07:48:23;25.33;;;8.45;;
30173;SDS011;16985;50.814;8.530;2023-02-01T07:51:00;21.85;;;6.43;;
30173;SDS011;16985;50.814;8.530;2023-02-01T07:53:31;29.33;;;7.22;;
30173;SDS011;16985;50.814;8.530;2023-02-01T07:55:58;28.38;;;7.25;;
30173;SDS011;16985;50.814;8.530;2023-02-01T07:58:25;17.58;;;7.15;;
30173;SDS011;16985;50.814;8.530;2023-02-01T08:00:51;22.98;;;6.82;;
30173;SDS011;16985;50.814;8.530;2023-02-01T08:03:36;27.80;;;9.07;;
30173;SDS011;16985;50.814;8.530;2023-02-01T08:06:02;17.35;;;7.00;;
30173;SDS011;16985;50.814;8.530;2023-02-01T08:08:29;25.23;;;7.60;;
30173;SDS011;16985;50.814;8.530;2023-02-01T08:11:02;20.17;;;6.30;;
30173;SDS011;16985;50.814;8.530;2023-02-01T08:13:31;24.80;;;8.25;;
30173;SDS011;16985;50.814;8.530;2023-02-01T08:16:00;24.13;;;6.65;;
30173;SDS011;16985;50.814;8.530;2023-02-01T08:18:32;20.45;;;6.35;;
30173;SDS011;16985;50.814;8.530;2023-02-01T08:21:06;29.98;;;7.82;;
30173;SDS011;16985;50.814;8.530;2023-02-01T08:23:34;28.20;;;7.63;;
30173;SDS011;16985;50.814;8.530;2023-02-01T08:28:38;31.63;;;7.63;;
30173;SDS011;16985;50.814;8.530;2023-02-01T08:31:06;22.77;;;7.00;;
30173;SDS011;16985;50.814;8.530;2023-02-01T08:33:35;23.27;;;6.50;;
30173;SDS011;16985;50.814;8.530;2023-02-01T08:36:04;13.30;;;5.95;;
30173;SDS011;16985;50.814;8.530;2023-02-01T08:38:32;21.77;;;6.75;;
30173;SDS011;16985;50.814;8.530;2023-02-01T08:43:31;25.10;;;6.60;;
30173;SDS011;16985;50.814;8.530;2023-02-01T08:45:56;21.27;;;6.28;;
30173;SDS011;16985;50.814;8.530;2023-02-01T08:48:22;17.42;;;6.38;;
30173;SDS011;16985;50.814;8.530;2023-02-01T08:50:48;20.20;;;7.45;;
30173;SDS011;16985;50.814;8.530;2023-02-01T08:53:14;31.08;;;7.40;;
30173;SDS011;16985;50.814;8.530;2023-02-01T08:55:40;14.93;;;6.63;;
30173;SDS011;16985;50.814;8.530;2023-02-01T08:58:06;35.17;;;7.07;;
30173;SDS011;16985;50.814;8.530;2023-02-01T09:00:32;20.65;;;6.88;;
30173;SDS011;16985;50.814;8.530;2023-02-01T09:02:57;19.13;;;6.95;;
30173;SDS011;16985;50.814;8.530;2023-02-01T09:05:23;29.20;;;7.20;;
30173;SDS011;16985;50.814;8.530;2023-02-01T09:07:51;25.13;;;8.20;;
30173;SDS011;16985;50.814;8.530;2023-02-01T09:10:20;21.50;;;6.90;;
30173;SDS011;16985;50.814;8.530;2023-02-01T09:12:46;20.88;;;7.22;;
30173;SDS011;16985;50.814;8.530;2023-02-01T09:15:12;20.95;;;7.55;;
30173;SDS011;16985;50.814;8.530;2023-02-01T09:17:37;18.83;;;7.55;;
30173;SDS011;16985;50.814;8.530;2023-02-01T09:20:04;26.38;;;6.97;;
30173;SDS011;16985;50.814;8.530;2023-02-01T09:22:30;32.85;;;7.25;;
30173;SDS011;16985;50.814;8.530;2023-02-01T09:24:56;21.45;;;6.72;;
30173;SDS011;16985;50.814;8.530;2023-02-01T09:27:22;22.25;;;7.50;;
30173;SDS011;16985;50.814;8.530;2023-02-01T09:29:48;24.08;;;6.72;;
30173;SDS011;16985;50.814;8.530;2023-02-01T09:32:17;21.63;;;7.40;;
30173;SDS011;16985;50.814;8.530;2023-02-01T09:34:47;17.85;;;8.38;;
30173;SDS011;16985;50.814;8.530;2023-02-01T09:37:14;28.65;;;10.85;;
30173;SDS011;16985;50.814;8.530;2023-02-01T09:39:40;43.22;;;12.60;;
30173;SDS011;16985;50.814;8.530;2023-02-01T09:42:15;25.50;;;10.65;;
30173;SDS011;16985;50.814;8.530;2023-02-01T09:48:00;19.38;;;6.32;;
30173;SDS011;16985;50.814;8.530;2023-02-01T09:50:36;26.55;;;6.88;;
30173;SDS011;16985;50.814;8.530;2023-02-01T09:55:54;17.30;;;6.82;;
30173;SDS011;16985;50.814;8.530;2023-02-01T09:58:32;21.77;;;6.53;;
30173;SDS011;16985;50.814;8.530;2023-02-01T10:01:23;32.80;;;8.25;;
30173;SDS011;16985;50.814;8.530;2023-02-01T10:03:52;21.33;;;7.70;;
30173;SDS011;16985;50.814;8.530;2023-02-01T10:06:33;21.30;;;6.85;;
30173;SDS011;16985;50.814;8.530;2023-02-01T10:09:30;25.30;;;6.85;;
30173;SDS011;16985;50.814;8.530;2023-02-01T10:12:33;25.73;;;6.57;;
30173;SDS011;16985;50.814;8.530;2023-02-01T10:18:27;22.88;;;7.05;;
30173;SDS011;16985;50.814;8.530;2023-02-01T10:27:41;26.33;;;5.82;;
30173;SDS011;16985;50.814;8.530;2023-02-01T10:29:55;35.63;;;8.98;;
30173;SDS011;16985;50.814;8.530;2023-02-01T10:32:38;14.88;;;5.88;;
30173;SDS011;16985;50.814;8.530;2023-02-01T10:35:16;28.17;;;6.55;;
30173;SDS011;16985;50.814;8.530;2023-02-01T10:37:48;24.35;;;7.80;;
30173;SDS011;16985;50.814;8.530;2023-02-01T10:40:19;17.92;;;7.28;;
30173;SDS011;16985;50.814;8.530;2023-02-01T10:42:54;22.23;;;6.60;;
30173;SDS011;16985;50.814;8.530;2023-02-01T10:45:26;18.85;;;6.13;;
30173;SDS011;16985;50.814;8.530;2023-02-01T10:47:55;22.23;;;6.45;;
30173;SDS011;16985;50.814;8.530;2023-02-01T10:50:39;15.05;;;5.82;;
30173;SDS011;16985;50.814;8.530;2023-02-01T10:53:25;25.60;;;6.70;;
30173;SDS011;16985;50.814;8.530;2023-02-01T10:56:08;18.63;;;5.97;;
30173;SDS011;16985;50.814;8.530;2023-02-01T10:58:36;20.40;;;5.95;;
30173;SDS011;16985;50.814;8.530;2023-02-01T11:01:15;24.60;;;5.65;;
30173;SDS011;16985;50.814;8.530;2023-02-01T11:04:14;19.55;;;5.38;;
30173;SDS011;16985;50.814;8.530;2023-02-01T11:06:48;21.40;;;5.53;;
30173;SDS011;16985;50.814;8.530;2023-02-01T11:09:26;25.10;;;5.07;;
30173;SDS011;16985;50.814;8.530;2023-02-01T11:11:53;20.77;;;5.47;;
30173;SDS011;16985;50.814;8.530;2023-02-01T11:19:58;20.50;;;6.28;;
30173;SDS011;16985;50.814;8.530;2023-02-01T11:22:27;27.33;;;7.38;;
30173;SDS011;16985;50.814;8.530;2023-02-01T11:24:54;26.83;;;5.75;;
30173;SDS011;16985;50.814;8.530;2023-02-01T11:27:22;19.40;;;5.82;;
30173;SDS011;16985;50.814;8.530;2023-02-01T11:32:17;16.05;;;4.82;;
30173;SDS011;16985;50.814;8.530;2023-02-01T11:34:52;23.45;;;6.35;;
30173;SDS011;16985;50.814;8.530;2023-02-01T11:37:29;15.15;;;4.53;;
30173;SDS011;16985;50.814;8.530;2023-02-01T11:40:00;24.23;;;5.35;;
30173;SDS011;16985;50.814;8.530;2023-02-01T11:43:04;16.75;;;6.18;;
30173;SDS011;16985;50.814;8.530;2023-02-01T11:48:27;21.35;;;6.18;;
30173;SDS011;16985;50.814;8.530;2023-02-01T11:50:59;30.70;;;7.03;;
30173;SDS011;16985;50.814;8.530;2023-02-01T11:53:36;31.15;;;6.93;;
30173;SDS011;16985;50.814;8.530;2023-02-01T11:59:04;12.82;;;5.20;;
30173;SDS011;16985;50.814;8.530;2023-02-01T12:08:07;21.65;;;4.97;;
30173;SDS011;16985;50.814;8.530;2023-02-01T12:26:32;20.05;;;4.38;;
30173;SDS011;16985;50.814;8.530;2023-02-01T12:32:15;25.50;;;5.50;;
30173;SDS011;16985;50.814;8.530;2023-02-01T12:40:55;18.05;;;4.15;;
30173;SDS011;16985;50.814;8.530;2023-02-01T12:44:10;20.77;;;4.95;;
30173;SDS011;16985;50.814;8.530;2023-02-01T12:46:30;26.00;;;5.03;;
30173;SDS011;16985;50.814;8.530;2023-02-01T12:49:17;11.75;;;3.88;;
30173;SDS011;16985;50.814;8.530;2023-02-01T12:52:01;18.08;;;5.43;;
30173;SDS011;16985;50.814;8.530;2023-02-01T12:54:39;14.43;;;4.47;;
30173;SDS011;16985;50.814;8.530;2023-02-01T12:57:27;18.48;;;4.57;;
30173;SDS011;16985;50.814;8.530;2023-02-01T13:03:22;22.63;;;4.85;;
30173;SDS011;16985;50.814;8.530;2023-02-01T13:09:17;15.00;;;3.90;;
30173;SDS011;16985;50.814;8.530;2023-02-01T13:11:55;15.93;;;3.67;;
30173;SDS011;16985;50.814;8.530;2023-02-01T13:14:38;12.57;;;3.72;;
30173;SDS011;16985;50.814;8.530;2023-02-01T13:17:23;21.27;;;4.30;;
30173;SDS011;16985;50.814;8.530;2023-02-01T13:20:02;16.83;;;3.65;;
30173;SDS011;16985;50.814;8.530;2023-02-01T13:23:02;17.42;;;4.40;;
30173;SDS011;16985;50.814;8.530;2023-02-01T13:25:52;15.05;;;4.43;;
30173;SDS011;16985;50.814;8.530;2023-02-01T13:28:23;15.10;;;4.60;;
30173;SDS011;16985;50.814;8.530;2023-02-01T13:37:26;14.50;;;3.92;;
30173;SDS011;16985;50.814;8.530;2023-02-01T13:42:56;9.95;;;3.33;;
30173;SDS011;16985;50.814;8.530;2023-02-01T13:45:52;16.92;;;4.50;;
30173;SDS011;16985;50.814;8.530;2023-02-01T13:48:24;17.92;;;3.92;;
30173;SDS011;16985;50.814;8.530;2023-02-01T13:51:11;14.93;;;4.38;;
30173;SDS011;16985;50.814;8.530;2023-02-01T13:53:38;14.55;;;4.13;;
30173;SDS011;16985;50.814;8.530;2023-02-01T13:56:13;18.20;;;4.22;;
30173;SDS011;16985;50.814;8.530;2023-02-01T13:58:45;20.27;;;5.43;;
30173;SDS011;16985;50.814;8.530;2023-02-01T14:11:37;18.25;;;4.82;;
30173;SDS011;16985;50.814;8.530;2023-02-01T14:19:30;18.45;;;4.28;;
30173;SDS011;16985;50.814;8.530;2023-02-01T14:21:59;22.30;;;4.53;;
30173;SDS011;16985;50.814;8.530;2023-02-01T14:24:50;12.93;;;4.65;;
30173;SDS011;16985;50.814;8.530;2023-02-01T14:27:29;17.35;;;4.00;;
30173;SDS011;16985;50.814;8.530;2023-02-01T14:30:01;16.15;;;4.30;;
30173;SDS011;16985;50.814;8.530;2023-02-01T14:32:38;24.75;;;5.13;;
30173;SDS011;16985;50.814;8.530;2023-02-01T14:35:12;13.23;;;3.55;;
30173;SDS011;16985;50.814;8.530;2023-02-01T14:37:50;12.27;;;3.67;;
30173;SDS011;16985;50.814;8.530;2023-02-01T14:40:20;19.50;;;4.40;;
30173;SDS011;16985;50.814;8.530;2023-02-01T14:42:51;25.58;;;4.57;;
30173;SDS011;16985;50.814;8.530;2023-02-01T14:47:49;11.15;;;3.30;;
30173;SDS011;16985;50.814;8.530;2023-02-01T15:01:23;7.97;;;3.30;;
30173;SDS011;16985;50.814;8.530;2023-02-01T15:06:40;12.57;;;3.40;;
30173;SDS011;16985;50.814;8.530;2023-02-01T15:09:26;10.95;;;2.95;;
30173;SDS011;16985;50.814;8.530;2023-02-01T15:14:22;18.23;;;4.93;;
30173;SDS011;16985;50.814;8.530;2023-02-01T15:16:49;8.52;;;3.63;;
30173;SDS011;16985;50.814;8.530;2023-02-01T15:19:19;10.27;;;3.50;;
30173;SDS011;16985;50.814;8.530;2023-02-01T15:21:48;10.38;;;4.18;;
30173;SDS011;16985;50.814;8.530;2023-02-01T15:24:24;11.10;;;3.55;;
30173;SDS011;16985;50.814;8.530;2023-02-01T15:26:56;13.35;;;4.07;;
30173;SDS011;16985;50.814;8.530;2023-02-01T15:29:29;12.38;;;3.65;;
30173;SDS011;16985;50.814;8.530;2023-02-01T15:31:57;17.40;;;4.17;;
30173;SDS011;16985;50.814;8.530;2023-02-01T15:34:23;14.25;;;3.47;;
30173;SDS011;16985;50.814;8.530;2023-02-01T15:37:12;26.35;;;8.10;;
30173;SDS011;16985;50.814;8.530;2023-02-01T15:42:49;25.83;;;5.90;;
30173;SDS011;16985;50.814;8.530;2023-02-01T15:45:17;13.25;;;5.90;;
30173;SDS011;16985;50.814;8.530;2023-02-01T15:50:18;18.05;;;5.00;;
30173;SDS011;16985;50.814;8.530;2023-02-01T15:52:46;16.33;;;5.03;;
30173;SDS011;16985;50.814;8.530;2023-02-01T15:55:19;18.35;;;5.97;;
30173;SDS011;16985;50.814;8.530;2023-02-01T15:57:47;12.25;;;4.80;;
30173;SDS011;16985;50.814;8.530;2023-02-01T16:03:05;16.63;;;4.78;;
30173;SDS011;16985;50.814;8.530;2023-02-01T16:05:58;18.52;;;6.13;;
30173;SDS011;16985;50.814;8.530;2023-02-01T16:08:28;19.67;;;5.80;;
30173;SDS011;16985;50.814;8.530;2023-02-01T16:11:01;16.10;;;5.18;;
30173;SDS011;16985;50.814;8.530;2023-02-01T16:13:47;16.48;;;6.85;;
30173;SDS011;16985;50.814;8.530;2023-02-01T16:16:13;19.63;;;5.30;;
30173;SDS011;16985;50.814;8.530;2023-02-01T16:18:39;18.05;;;6.10;;
30173;SDS011;16985;50.814;8.530;2023-02-01T16:21:06;13.07;;;5.10;;
30173;SDS011;16985;50.814;8.530;2023-02-01T16:23:35;14.80;;;5.13;;
30173;SDS011;16985;50.814;8.530;2023-02-01T16:26:02;23.02;;;6.00;;
30173;SDS011;16985;50.814;8.530;2023-02-01T16:28:29;14.82;;;5.40;;
30173;SDS011;16985;50.814;8.530;2023-02-01T16:30:55;13.05;;;5.93;;
30173;SDS011;16985;50.814;8.530;2023-02-01T16:33:21;17.55;;;5.47;;
30173;SDS011;16985;50.814;8.530;2023-02-01T16:35:48;23.33;;;6.00;;
30173;SDS011;16985;50.814;8.530;2023-02-01T16:38:16;14.57;;;5.50;;
30173;SDS011;16985;50.814;8.530;2023-02-01T16:40:46;22.95;;;6.03;;
30173;SDS011;16985;50.814;8.530;2023-02-01T16:43:21;25.80;;;6.15;;
30173;SDS011;16985;50.814;8.530;2023-02-01T16:45:49;13.93;;;4.97;;
30173;SDS011;16985;50.814;8.530;2023-02-01T16:48:28;21.25;;;6.60;;
30173;SDS011;16985;50.814;8.530;2023-02-01T16:51:09;19.73;;;7.10;;
30173;SDS011;16985;50.814;8.530;2023-02-01T16:53:37;14.70;;;6.60;;
30173;SDS011;16985;50.814;8.530;2023-02-01T16:56:13;23.02;;;8.18;;
30173;SDS011;16985;50.814;8.530;2023-02-01T16:58:42;18.40;;;7.97;;
30173;SDS011;16985;50.814;8.530;2023-02-01T17:01:09;19.20;;;8.20;;
30173;SDS011;16985;50.814;8.530;2023-02-01T17:03:37;26.00;;;8.35;;
30173;SDS011;16985;50.814;8.530;2023-02-01T17:06:03;25.42;;;8.73;;
30173;SDS011;16985;50.814;8.530;2023-02-01T17:08:31;21.23;;;8.55;;
30173;SDS011;16985;50.814;8.530;2023-02-01T17:11:02;19.00;;;8.25;;
30173;SDS011;16985;50.814;8.530;2023-02-01T17:13:30;13.77;;;7.40;;
30173;SDS011;16985;50.814;8.530;2023-02-01T17:16:30;15.55;;;6.82;;
30173;SDS011;16985;50.814;8.530;2023-02-01T17:18:59;21.20;;;8.38;;
30173;SDS011;16985;50.814;8.530;2023-02-01T17:21:39;22.08;;;7.85;;
30173;SDS011;16985;50.814;8.530;2023-02-01T17:24:13;24.15;;;7.85;;
30173;SDS011;16985;50.814;8.530;2023-02-01T17:26:41;18.98;;;7.57;;
30173;SDS011;16985;50.814;8.530;2023-02-01T17:29:08;21.70;;;7.35;;